sensor_id;sensor_type;location;lat;lon;timestamp;P1;durP1;ratioP1;P2;durP2;ratioP2
43861;SDS011;29510;52.140;5.034;2022-09-09T00:00:15;1.15;;;0.40;;
43861;SDS011;29510;52.140;5.034;2022-09-09T00:20:39;0.50;;;0.10;;
43861;SDS011;29510;52.140;5.034;2022-09-09T00:31:13;0.90;;;0.40;;
43861;SDS011;29510;52.140;5.034;2022-09-09T00:41:24;4.10;;;0.40;;
43861;SDS011;29510;52.140;5.034;2022-09-09T01:01:43;1.40;;;0.70;;
43861;SDS011;29510;52.140;5.034;2022-09-09T01:32:37;1.23;;;0.77;;
43861;SDS011;29510;52.140;5.034;2022-09-09T01:42:46;1.40;;;0.60;;
43861;SDS011;29510;52.140;5.034;2022-09-09T01:52:50;7.15;;;1.92;;
43861;SDS011;29510;52.140;5.034;2022-09-09T02:13:13;2.03;;;0.60;;
43861;SDS011;29510;52.140;5.034;2022-09-09T02:23:15;1.63;;;0.63;;
43861;SDS011;29510;52.140;5.034;2022-09-09T02:33:18;1.67;;;0.90;;
43861;SDS011;29510;52.140;5.034;2022-09-09T02:43:19;1.58;;;0.70;;
43861;SDS011;29510;52.140;5.034;2022-09-09T02:53:22;2.70;;;1.13;;
43861;SDS011;29510;52.140;5.034;2022-09-09T03:03:32;2.35;;;1.45;;
43861;SDS011;29510;52.140;5.034;2022-09-09T03:13:33;1.80;;;0.77;;
43861;SDS011;29510;52.140;5.034;2022-09-09T03:23:34;3.05;;;1.15;;
43861;SDS011;29510;52.140;5.034;2022-09-09T03:33:38;3.78;;;1.38;;
43861;SDS011;29510;52.140;5.034;2022-09-09T03:43:41;3.10;;;1.85;;
43861;SDS011;29510;52.140;5.034;2022-09-09T03:53:42;2.28;;;0.70;;
43861;SDS011;29510;52.140;5.034;2022-09-09T04:03:43;3.60;;;1.52;;
43861;SDS011;29510;52.140;5.034;2022-09-09T04:13:45;3.30;;;1.10;;
43861;SDS011;29510;52.140;5.034;2022-09-09T04:23:46;5.20;;;2.10;;
43861;SDS011;29510;52.140;5.034;2022-09-09T04:33:47;1.33;;;0.50;;
43861;SDS011;29510;52.140;5.034;2022-09-09T04:43:48;2.05;;;0.80;;
43861;SDS011;29510;52.140;5.034;2022-09-09T04:53:50;1.88;;;0.80;;
43861;SDS011;29510;52.140;5.034;2022-09-09T05:03:51;0.95;;;0.60;;
43861;SDS011;29510;52.140;5.034;2022-09-09T05:13:54;1.73;;;0.73;;
43861;SDS011;29510;52.140;5.034;2022-09-09T05:23:55;1.77;;;0.70;;
43861;SDS011;29510;52.140;5.034;2022-09-09T05:33:56;1.88;;;0.80;;
43861;SDS011;29510;52.140;5.034;2022-09-09T05:43:57;5.45;;;1.13;;
43861;SDS011;29510;52.140;5.034;2022-09-09T05:53:59;2.60;;;1.30;;
43861;SDS011;29510;52.140;5.034;2022-09-09T06:04:00;2.85;;;1.38;;
43861;SDS011;29510;52.140;5.034;2022-09-09T06:14:02;2.90;;;0.90;;
43861;SDS011;29510;52.140;5.034;2022-09-09T06:24:03;5.68;;;1.30;;
43861;SDS011;29510;52.140;5.034;2022-09-09T06:34:06;2.63;;;0.88;;
43861;SDS011;29510;52.140;5.034;2022-09-09T06:44:08;3.28;;;0.90;;
43861;SDS011;29510;52.140;5.034;2022-09-09T06:54:12;2.03;;;0.68;;
43861;SDS011;29510;52.140;5.034;2022-09-09T07:04:14;1.92;;;1.05;;
43861;SDS011;29510;52.140;5.034;2022-09-09T07:14:15;2.28;;;0.93;;
43861;SDS011;29510;52.140;5.034;2022-09-09T07:24:16;3.95;;;1.30;;
43861;SDS011;29510;52.140;5.034;2022-09-09T07:34:17;5.00;;;0.88;;
43861;SDS011;29510;52.140;5.034;2022-09-09T07:44:20;4.55;;;1.20;;
43861;SDS011;29510;52.140;5.034;2022-09-09T07:54:22;1.58;;;0.75;;
43861;SDS011;29510;52.140;5.034;2022-09-09T08:04:24;1.63;;;0.75;;
43861;SDS011;29510;52.140;5.034;2022-09-09T08:14:26;2.63;;;1.38;;
43861;SDS011;29510;52.140;5.034;2022-09-09T08:24:27;1.90;;;0.85;;
43861;SDS011;29510;52.140;5.034;2022-09-09T08:34:29;3.70;;;0.70;;
43861;SDS011;29510;52.140;5.034;2022-09-09T08:54:36;2.00;;;0.68;;
43861;SDS011;29510;52.140;5.034;2022-09-09T09:04:44;3.42;;;1.33;;
43861;SDS011;29510;52.140;5.034;2022-09-09T09:14:49;2.40;;;0.95;;
43861;SDS011;29510;52.140;5.034;2022-09-09T09:25:00;2.83;;;0.85;;
43861;SDS011;29510;52.140;5.034;2022-09-09T09:35:09;2.00;;;0.70;;
43861;SDS011;29510;52.140;5.034;2022-09-09T09:45:14;2.40;;;1.33;;
43861;SDS011;29510;52.140;5.034;2022-09-09T09:55:26;1.80;;;1.02;;
43861;SDS011;29510;52.140;5.034;2022-09-09T10:05:32;3.40;;;0.95;;
43861;SDS011;29510;52.140;5.034;2022-09-09T10:26:17;4.03;;;0.88;;
43861;SDS011;29510;52.140;5.034;2022-09-09T10:36:33;4.82;;;1.55;;
43861;SDS011;29510;52.140;5.034;2022-09-09T10:46:43;3.00;;;0.70;;
43861;SDS011;29510;52.140;5.034;2022-09-09T10:57:17;1.27;;;0.57;;
43861;SDS011;29510;52.140;5.034;2022-09-09T11:07:24;1.98;;;0.68;;
43861;SDS011;29510;52.140;5.034;2022-09-09T11:17:45;1.88;;;0.85;;
43861;SDS011;29510;52.140;5.034;2022-09-09T11:48:39;3.03;;;1.67;;
43861;SDS011;29510;52.140;5.034;2022-09-09T11:59:19;2.10;;;0.57;;
43861;SDS011;29510;52.140;5.034;2022-09-09T12:09:32;2.28;;;0.75;;
43861;SDS011;29510;52.140;5.034;2022-09-09T12:19:34;3.15;;;0.90;;
43861;SDS011;29510;52.140;5.034;2022-09-09T12:29:59;2.10;;;0.80;;
43861;SDS011;29510;52.140;5.034;2022-09-09T12:40:30;2.92;;;1.17;;
43861;SDS011;29510;52.140;5.034;2022-09-09T12:50:36;2.72;;;0.75;;
43861;SDS011;29510;52.140;5.034;2022-09-09T13:00:48;1.70;;;0.70;;
43861;SDS011;29510;52.140;5.034;2022-09-09T13:10:55;1.55;;;0.57;;
43861;SDS011;29510;52.140;5.034;2022-09-09T13:21:03;1.50;;;0.60;;
43861;SDS011;29510;52.140;5.034;2022-09-09T13:31:18;3.10;;;0.60;;
43861;SDS011;29510;52.140;5.034;2022-09-09T13:41:22;13.68;;;0.80;;
43861;SDS011;29510;52.140;5.034;2022-09-09T13:51:34;2.40;;;1.17;;
43861;SDS011;29510;52.140;5.034;2022-09-09T14:01:37;1.80;;;0.67;;
43861;SDS011;29510;52.140;5.034;2022-09-09T14:11:38;2.30;;;0.93;;
43861;SDS011;29510;52.140;5.034;2022-09-09T14:21:40;1.70;;;0.60;;
43861;SDS011;29510;52.140;5.034;2022-09-09T14:31:41;2.33;;;0.60;;
43861;SDS011;29510;52.140;5.034;2022-09-09T14:41:43;1.85;;;0.50;;
43861;SDS011;29510;52.140;5.034;2022-09-09T14:51:44;1.27;;;0.40;;
43861;SDS011;29510;52.140;5.034;2022-09-09T15:01:45;3.72;;;1.23;;
43861;SDS011;29510;52.140;5.034;2022-09-09T15:11:46;1.23;;;0.30;;
43861;SDS011;29510;52.140;5.034;2022-09-09T15:21:47;1.48;;;0.43;;
43861;SDS011;29510;52.140;5.034;2022-09-09T15:31:48;1.48;;;0.55;;
43861;SDS011;29510;52.140;5.034;2022-09-09T15:41:49;1.15;;;0.40;;
43861;SDS011;29510;52.140;5.034;2022-09-09T15:51:53;1.00;;;0.40;;
43861;SDS011;29510;52.140;5.034;2022-09-09T16:01:57;0.85;;;0.30;;
43861;SDS011;29510;52.140;5.034;2022-09-09T16:12:01;0.60;;;0.32;;
43861;SDS011;29510;52.140;5.034;2022-09-09T16:22:06;7.85;;;1.10;;
43861;SDS011;29510;52.140;5.034;2022-09-09T16:32:07;4.30;;;0.82;;
43861;SDS011;29510;52.140;5.034;2022-09-09T16:42:08;1.35;;;0.30;;
43861;SDS011;29510;52.140;5.034;2022-09-09T16:52:11;2.00;;;1.00;;
43861;SDS011;29510;52.140;5.034;2022-09-09T17:02:12;2.65;;;0.55;;
43861;SDS011;29510;52.140;5.034;2022-09-09T17:12:13;2.65;;;1.75;;
43861;SDS011;29510;52.140;5.034;2022-09-09T17:22:14;2.95;;;1.70;;
43861;SDS011;29510;52.140;5.034;2022-09-09T17:32:15;4.50;;;1.73;;
43861;SDS011;29510;52.140;5.034;2022-09-09T17:42:16;2.42;;;1.00;;
43861;SDS011;29510;52.140;5.034;2022-09-09T17:52:18;7.85;;;2.03;;
43861;SDS011;29510;52.140;5.034;2022-09-09T18:02:19;3.35;;;1.90;;
43861;SDS011;29510;52.140;5.034;2022-09-09T18:12:20;4.10;;;1.30;;
43861;SDS011;29510;52.140;5.034;2022-09-09T18:22:21;5.38;;;0.95;;
43861;SDS011;29510;52.140;5.034;2022-09-09T18:32:22;2.05;;;1.13;;
43861;SDS011;29510;52.140;5.034;2022-09-09T18:42:23;1.70;;;0.80;;
43861;SDS011;29510;52.140;5.034;2022-09-09T18:52:26;2.10;;;0.90;;
43861;SDS011;29510;52.140;5.034;2022-09-09T19:02:27;2.33;;;1.00;;
43861;SDS011;29510;52.140;5.034;2022-09-09T19:12:28;1.85;;;0.95;;
43861;SDS011;29510;52.140;5.034;2022-09-09T19:22:30;1.73;;;0.60;;
43861;SDS011;29510;52.140;5.034;2022-09-09T19:32:31;2.83;;;1.20;;
43861;SDS011;29510;52.140;5.034;2022-09-09T19:42:32;3.90;;;1.92;;
43861;SDS011;29510;52.140;5.034;2022-09-09T19:52:33;2.20;;;1.30;;
43861;SDS011;29510;52.140;5.034;2022-09-09T20:02:34;4.55;;;1.10;;
43861;SDS011;29510;52.140;5.034;2022-09-09T20:12:35;1.90;;;1.08;;
43861;SDS011;29510;52.140;5.034;2022-09-09T20:22:36;2.80;;;1.10;;
43861;SDS011;29510;52.140;5.034;2022-09-09T20:32:37;3.03;;;1.45;;
43861;SDS011;29510;52.140;5.034;2022-09-09T20:42:38;2.42;;;0.80;;
43861;SDS011;29510;52.140;5.034;2022-09-09T20:52:39;2.03;;;1.00;;
43861;SDS011;29510;52.140;5.034;2022-09-09T21:02:40;3.30;;;1.17;;
43861;SDS011;29510;52.140;5.034;2022-09-09T21:12:41;1.88;;;0.80;;
43861;SDS011;29510;52.140;5.034;2022-09-09T21:22:42;3.83;;;1.30;;
43861;SDS011;29510;52.140;5.034;2022-09-09T21:32:43;2.85;;;1.33;;
43861;SDS011;29510;52.140;5.034;2022-09-09T21:42:45;2.75;;;1.17;;
43861;SDS011;29510;52.140;5.034;2022-09-09T21:52:46;2.80;;;1.50;;
43861;SDS011;29510;52.140;5.034;2022-09-09T22:02:47;3.88;;;2.20;;
43861;SDS011;29510;52.140;5.034;2022-09-09T22:12:48;6.22;;;2.15;;
43861;SDS011;29510;52.140;5.034;2022-09-09T22:22:50;4.15;;;2.08;;
43861;SDS011;29510;52.140;5.034;2022-09-09T22:32:51;5.50;;;2.47;;
43861;SDS011;29510;52.140;5.034;2022-09-09T22:42:52;4.57;;;2.30;;
43861;SDS011;29510;52.140;5.034;2022-09-09T22:52:53;6.55;;;3.70;;
43861;SDS011;29510;52.140;5.034;2022-09-09T23:02:54;5.72;;;2.72;;
43861;SDS011;29510;52.140;5.034;2022-09-09T23:12:55;6.95;;;3.53;;
43861;SDS011;29510;52.140;5.034;2022-09-09T23:22:58;7.88;;;3.38;;
43861;SDS011;29510;52.140;5.034;2022-09-09T23:33:00;5.22;;;3.30;;
43861;SDS011;29510;52.140;5.034;2022-09-09T23:43:01;6.85;;;3.13;;
43861;SDS011;29510;52.140;5.034;2022-09-09T23:53:03;7.68;;;3.63;;
